Eastland, TX (76448)

2:35 PM CDT on July 28, 2015 (GMT -0500)
EBAA IRON | | Change Station
CLOSE
Current Station
Personal Weather Station
Location: Eastland, TX
Elevation: 1437 ft
Nearby Weather Stations

Elev 1437 ft 32.37 °N, 98.77 °W | Updated 2 minutes ago

Clear
Clear
105.6 °F
Feels Like 116 °F
N
4.7
Wind Variable Wind from SSW

Today
High -- | Low -- °F
--% Chance of Precip.
Yesterday
High -- | Low -- °F
Precip. -- in
6:47 AM 8:36 PM
Waxing Gibbous, 91% visible
Pressure 29.94 in
Visibility 7.0 miles
Clouds Clear
Heat Index 116 °F
Dew Point 70 °F
Humidity 33%
Rainfall 0.00 in
Snow Depth Not available.
UV 12 out of 12
Pollen 6.20 out of 12
Air Quality Not available.
Flu Activity Not available.
METAR KBKD 281915Z AUTO 13007KT 7SM CLR 35/19 A2994 RMK AO2 T03520186

More Conditions Fewer Conditions

Pressure 29.94 in
Visibility 7.0 miles
Clouds Clear
Heat Index 116 °F
Dew Point 70 °F
Humidity 33%
Rainfall 0.00 in
Snow Depth Not available.
UV 12 out of 12
Pollen 6.20 out of 12
Air Quality Not available.
Flu Activity Not available.
METAR KBKD 281915Z AUTO 13007KT 7SM CLR 35/19 A2994 RMK AO2 T03520186

More Conditions Fewer Conditions

10-Day Weather Forecast

×

Almanac

Astronomy

Jul. 28, 2015 Rise Set
Actual Time
Civil Twilight
Nautical Twilight
Astronomical Twilight
Moon
Length of Visible Light
Length of Day
Tomorrow will be .
, % of the Moon is Illuminated

Today's Extremes

State Highs State Lows

Community

WunderPhotos

Upload Photos

1,841,926 photos uploaded!

WunderBlogs® & News

Nearby

Air Quality

  Air Quality AQ Index Pollutant
Not available.

Snow Depth

Station Depth Elevation

Earthquake Activity

City Distance Mag. Time & Date
Minimum magnitude displayed is 2.5.

Coastal Water Temperatures

Place Temperature

Stations

Nearby Weather Stations

Station Location Temp. Windchill Dew Point Humidity Wind Precip. Elev Updated Type